CheckWX is a tool to help pilots better visualize weather data.  It is not intended as a substitute for an official pre-flight weather briefing.

04:05:42 UTC

KMGY METAR
Dayton-Wright Brothers Airport
Dayton, Ohio, USA
Current

13 mins ago

KMGY 250353Z AUTO 12006KT 9SM -RA OVC085 12/09 A2988 RMK AO2 SLP115 P0004 T01220089
Observed
Apr-25 @ 03:53 UTC
Wind
  • 120° at 6 KTS
Visibility
9 SM
Flight Rules
VFR
Conditions
Light Rain
Cloud Levels
  • Overcast at 8,500' AGL
Temperature
12°C / 54°F
Dewpoint
C / 48°F
Humidity
82%
Altimeter
29.88" Hg
Pressure
1011.82 hPa
Current Rain
0.04"
Previous

1 hour ago

KMGY 250253Z AUTO 06004KT 10SM -RA OVC095 13/08 A2990 RMK AO2 SLP124 P0001 60001 T01330083 53002
Observed
Apr-25 @ 02:53 UTC
Wind
  • 060° at 4 KTS
Visibility
10 SM
Flight Rules
VFR
Conditions
Light Rain
Cloud Levels
  • Overcast at 9,500' AGL
Temperature
13°C / 55°F
Dewpoint
C / 46°F
Humidity
72%
Altimeter
29.9" Hg
Pressure
1012.52 hPa
Current Rain
0.01"
Previous

2 hours ago

KMGY 250153Z AUTO 09004KT 10SM -RA OVC100 15/07 A2989 RMK AO2 RAB01 SLP120 P0000 T01500067
Observed
Apr-25 @ 01:53 UTC
Wind
  • 090° at 4 KTS
Visibility
10 SM
Flight Rules
VFR
Conditions
Light Rain
Cloud Levels
  • Overcast at 10,000' AGL
Temperature
15°C / 59°F
Dewpoint
C / 45°F
Humidity
59%
Altimeter
29.89" Hg
Pressure
1012.22 hPa
Current Rain
0.01"